Marina Del Rey, California
Current Conditions -  °F | °C
As of 8:51 AM on Tuesday 21 Oct 2014 (Local Time) from KSMO Reporting Station
Haze Haze  
Wind Chill: 68°   Ceiling: Unl
Heat Index: 68°   Visibility: 4mi
Dew Point: 60°   Wind: 3mph
Humidity: 76%   Direction: 70°ENE
Pressure: 29.93"   Gusts: NA
Location:  33.98°N, 118.45°W
Report Text: KSMO 211551Z 07003KT 4SM HZ CLR 20/16 A2993 RMK AO2 SLP134 T02000156
Loading
Personal Weather Stations






























Interactive Weather Map
Tropical Storm Tracking
New forecast layout! Learn more

10-Day Weather Forecast

Advertisements
Track Severe Weather on mobile